Terminal Aerodrome Forecast
Issued by NWS Mt. Holly, NJ

Current Version | Previous Version | Text Only | Print | Product List | Glossary On
Versions: 1 2 3 4 5 6 7 8 9 10 11 12 13 14 15 16 17
000
FTUS41 KPHI 301700 RRA
TAFTTN
TAF
KTTN 301741Z 3018/0118 12006KT P6SM FEW040
     FM010000 08007KT P6SM BKN040
     FM010400 07008KT 6SM BR OVC012
     FM010900 06006KT 4SM BR OVC006
     FM011400 03010KT P6SM BKN010=

USA.gov is the U.S. government's official web portal to all federal, state and local government web resources and services.